Audubon, Iowa
Current Conditions -  °F | °C
As of 10:15 AM on Sunday 25 Jan 2015 (Local Time) from KADU Reporting Station
Scattered Clouds Scattered Clouds  
Wind Chill: 23°   Ceiling: Unl
Heat Index: 34°   Visibility: 10mi
Dew Point: 30°   Wind: 18mph
Humidity: 87%   Direction: 360°N
Pressure: 29.88"   Gusts: 22mph
Location:  41.72°N, 94.93°W
Report Text: KADU 251615Z AUTO 36016G19KT 10SM SCT007 01/M01 A2988 RMK AO2
Loading
Personal Weather Stations






























Interactive Weather Map New forecast layout! Learn more

10-Day Weather Forecast

Advertisements
Track Severe Weather on mobile